sensor_id;sensor_type;location;lat;lon;timestamp;P1;durP1;ratioP1;P2;durP2;ratioP2
64291;SDS011;50628;51.008;13.658;2023-03-03T00:02:23;39.03;;;25.17;;
64291;SDS011;50628;51.008;13.658;2023-03-03T00:07:25;47.90;;;26.37;;
64291;SDS011;50628;51.008;13.658;2023-03-03T00:12:28;37.83;;;23.07;;
64291;SDS011;50628;51.008;13.658;2023-03-03T00:17:32;40.17;;;23.93;;
64291;SDS011;50628;51.008;13.658;2023-03-03T00:22:35;44.77;;;26.73;;
64291;SDS011;50628;51.008;13.658;2023-03-03T00:27:40;48.10;;;27.67;;
64291;SDS011;50628;51.008;13.658;2023-03-03T00:32:44;58.40;;;33.37;;
64291;SDS011;50628;51.008;13.658;2023-03-03T00:37:50;62.77;;;33.13;;
64291;SDS011;50628;51.008;13.658;2023-03-03T00:42:56;69.53;;;36.00;;
64291;SDS011;50628;51.008;13.658;2023-03-03T00:48:06;68.93;;;34.93;;
64291;SDS011;50628;51.008;13.658;2023-03-03T00:53:20;64.80;;;36.47;;
64291;SDS011;50628;51.008;13.658;2023-03-03T00:58:23;64.80;;;35.80;;
64291;SDS011;50628;51.008;13.658;2023-03-03T01:03:28;69.77;;;35.63;;
64291;SDS011;50628;51.008;13.658;2023-03-03T01:08:30;82.57;;;36.30;;
64291;SDS011;50628;51.008;13.658;2023-03-03T01:13:32;75.40;;;34.17;;
64291;SDS011;50628;51.008;13.658;2023-03-03T01:18:38;78.20;;;37.60;;
64291;SDS011;50628;51.008;13.658;2023-03-03T01:23:41;82.83;;;38.17;;
64291;SDS011;50628;51.008;13.658;2023-03-03T01:28:44;100.20;;;37.80;;
64291;SDS011;50628;51.008;13.658;2023-03-03T01:33:47;71.07;;;33.73;;
64291;SDS011;50628;51.008;13.658;2023-03-03T01:38:49;110.70;;;36.07;;
64291;SDS011;50628;51.008;13.658;2023-03-03T01:43:51;85.47;;;36.37;;
64291;SDS011;50628;51.008;13.658;2023-03-03T01:48:55;112.40;;;36.73;;
64291;SDS011;50628;51.008;13.658;2023-03-03T01:54:02;98.97;;;32.87;;
64291;SDS011;50628;51.008;13.658;2023-03-03T01:59:08;69.10;;;31.13;;
64291;SDS011;50628;51.008;13.658;2023-03-03T02:04:15;82.60;;;32.50;;
64291;SDS011;50628;51.008;13.658;2023-03-03T02:09:20;81.60;;;33.90;;
64291;SDS011;50628;51.008;13.658;2023-03-03T02:14:26;65.27;;;30.70;;
64291;SDS011;50628;51.008;13.658;2023-03-03T02:19:33;84.37;;;31.87;;
64291;SDS011;50628;51.008;13.658;2023-03-03T02:24:44;55.90;;;27.90;;
64291;SDS011;50628;51.008;13.658;2023-03-03T02:29:54;48.73;;;27.27;;
64291;SDS011;50628;51.008;13.658;2023-03-03T02:34:56;49.03;;;26.97;;
64291;SDS011;50628;51.008;13.658;2023-03-03T02:39:58;52.03;;;27.30;;
64291;SDS011;50628;51.008;13.658;2023-03-03T02:45:02;47.10;;;24.80;;
64291;SDS011;50628;51.008;13.658;2023-03-03T02:50:04;48.50;;;25.47;;
64291;SDS011;50628;51.008;13.658;2023-03-03T02:55:07;43.03;;;24.63;;
64291;SDS011;50628;51.008;13.658;2023-03-03T03:00:11;40.30;;;22.60;;
64291;SDS011;50628;51.008;13.658;2023-03-03T03:05:14;45.57;;;26.07;;
64291;SDS011;50628;51.008;13.658;2023-03-03T03:10:16;47.73;;;25.40;;
64291;SDS011;50628;51.008;13.658;2023-03-03T03:15:20;42.97;;;25.60;;
64291;SDS011;50628;51.008;13.658;2023-03-03T03:20:22;42.93;;;24.50;;
64291;SDS011;50628;51.008;13.658;2023-03-03T03:25:24;41.77;;;23.63;;
64291;SDS011;50628;51.008;13.658;2023-03-03T03:30:28;44.93;;;23.27;;
64291;SDS011;50628;51.008;13.658;2023-03-03T03:35:31;49.07;;;24.97;;
64291;SDS011;50628;51.008;13.658;2023-03-03T03:40:33;50.83;;;26.87;;
64291;SDS011;50628;51.008;13.658;2023-03-03T03:45:36;49.17;;;27.90;;
64291;SDS011;50628;51.008;13.658;2023-03-03T03:50:39;48.73;;;26.90;;
64291;SDS011;50628;51.008;13.658;2023-03-03T03:55:42;46.87;;;25.77;;
64291;SDS011;50628;51.008;13.658;2023-03-03T04:00:46;44.90;;;25.20;;
64291;SDS011;50628;51.008;13.658;2023-03-03T04:05:51;48.20;;;27.00;;
64291;SDS011;50628;51.008;13.658;2023-03-03T04:10:55;47.27;;;25.83;;
64291;SDS011;50628;51.008;13.658;2023-03-03T04:15:59;40.47;;;24.53;;
64291;SDS011;50628;51.008;13.658;2023-03-03T04:21:01;49.77;;;26.43;;
64291;SDS011;50628;51.008;13.658;2023-03-03T04:26:03;45.40;;;24.93;;
64291;SDS011;50628;51.008;13.658;2023-03-03T04:31:07;45.37;;;25.13;;
64291;SDS011;50628;51.008;13.658;2023-03-03T04:36:09;44.67;;;25.23;;
64291;SDS011;50628;51.008;13.658;2023-03-03T04:41:11;48.10;;;25.83;;
64291;SDS011;50628;51.008;13.658;2023-03-03T04:46:16;49.10;;;24.50;;
64291;SDS011;50628;51.008;13.658;2023-03-03T04:51:17;43.70;;;22.97;;
64291;SDS011;50628;51.008;13.658;2023-03-03T04:56:19;41.80;;;22.67;;
64291;SDS011;50628;51.008;13.658;2023-03-03T05:01:24;43.20;;;24.33;;
64291;SDS011;50628;51.008;13.658;2023-03-03T05:06:26;47.43;;;24.70;;
64291;SDS011;50628;51.008;13.658;2023-03-03T05:11:28;45.97;;;24.77;;
64291;SDS011;50628;51.008;13.658;2023-03-03T05:16:33;45.60;;;24.17;;
64291;SDS011;50628;51.008;13.658;2023-03-03T05:21:34;45.87;;;24.87;;
64291;SDS011;50628;51.008;13.658;2023-03-03T05:26:36;48.87;;;24.30;;
64291;SDS011;50628;51.008;13.658;2023-03-03T05:31:40;43.80;;;24.33;;
64291;SDS011;50628;51.008;13.658;2023-03-03T05:36:41;46.70;;;24.57;;
64291;SDS011;50628;51.008;13.658;2023-03-03T05:41:43;48.63;;;25.30;;
64291;SDS011;50628;51.008;13.658;2023-03-03T05:46:46;46.40;;;24.20;;
64291;SDS011;50628;51.008;13.658;2023-03-03T05:51:48;40.20;;;24.07;;
64291;SDS011;50628;51.008;13.658;2023-03-03T05:56:50;42.83;;;25.47;;
64291;SDS011;50628;51.008;13.658;2023-03-03T06:01:54;46.13;;;25.80;;
64291;SDS011;50628;51.008;13.658;2023-03-03T06:06:55;44.60;;;23.57;;
64291;SDS011;50628;51.008;13.658;2023-03-03T06:11:57;51.20;;;26.90;;
64291;SDS011;50628;51.008;13.658;2023-03-03T06:17:01;50.63;;;26.53;;
64291;SDS011;50628;51.008;13.658;2023-03-03T06:22:03;42.50;;;25.07;;
64291;SDS011;50628;51.008;13.658;2023-03-03T06:27:04;49.77;;;27.60;;
64291;SDS011;50628;51.008;13.658;2023-03-03T06:32:08;47.90;;;25.47;;
64291;SDS011;50628;51.008;13.658;2023-03-03T06:37:10;41.87;;;25.53;;
64291;SDS011;50628;51.008;13.658;2023-03-03T06:42:12;46.07;;;25.20;;
64291;SDS011;50628;51.008;13.658;2023-03-03T06:47:15;41.93;;;25.23;;
64291;SDS011;50628;51.008;13.658;2023-03-03T06:52:19;45.07;;;25.97;;
64291;SDS011;50628;51.008;13.658;2023-03-03T06:57:25;38.17;;;23.77;;
64291;SDS011;50628;51.008;13.658;2023-03-03T07:02:29;43.27;;;26.10;;
64291;SDS011;50628;51.008;13.658;2023-03-03T07:07:31;44.00;;;25.30;;
64291;SDS011;50628;51.008;13.658;2023-03-03T07:12:33;46.07;;;25.70;;
64291;SDS011;50628;51.008;13.658;2023-03-03T07:17:37;42.03;;;25.20;;
64291;SDS011;50628;51.008;13.658;2023-03-03T07:22:44;45.03;;;25.03;;
64291;SDS011;50628;51.008;13.658;2023-03-03T07:27:51;45.27;;;24.40;;
64291;SDS011;50628;51.008;13.658;2023-03-03T07:32:58;46.13;;;25.07;;
64291;SDS011;50628;51.008;13.658;2023-03-03T07:38:00;46.57;;;25.27;;
64291;SDS011;50628;51.008;13.658;2023-03-03T07:43:13;48.17;;;26.00;;
64291;SDS011;50628;51.008;13.658;2023-03-03T07:48:30;42.63;;;24.00;;
64291;SDS011;50628;51.008;13.658;2023-03-03T07:53:36;46.87;;;24.70;;
64291;SDS011;50628;51.008;13.658;2023-03-03T07:58:39;44.30;;;24.40;;
64291;SDS011;50628;51.008;13.658;2023-03-03T08:03:43;43.07;;;24.20;;
64291;SDS011;50628;51.008;13.658;2023-03-03T08:08:50;49.17;;;24.73;;
64291;SDS011;50628;51.008;13.658;2023-03-03T08:13:53;41.63;;;22.77;;
64291;SDS011;50628;51.008;13.658;2023-03-03T08:18:56;45.53;;;24.27;;
64291;SDS011;50628;51.008;13.658;2023-03-03T08:24:02;40.67;;;23.33;;
64291;SDS011;50628;51.008;13.658;2023-03-03T08:29:05;45.03;;;22.60;;
64291;SDS011;50628;51.008;13.658;2023-03-03T08:34:08;45.60;;;25.40;;
64291;SDS011;50628;51.008;13.658;2023-03-03T08:39:10;42.33;;;21.93;;
64291;SDS011;50628;51.008;13.658;2023-03-03T08:44:12;43.50;;;23.87;;
64291;SDS011;50628;51.008;13.658;2023-03-03T08:49:15;39.70;;;22.07;;
64291;SDS011;50628;51.008;13.658;2023-03-03T08:54:17;36.67;;;22.43;;
64291;SDS011;50628;51.008;13.658;2023-03-03T08:59:18;37.70;;;20.97;;
64291;SDS011;50628;51.008;13.658;2023-03-03T09:04:22;46.93;;;21.73;;
64291;SDS011;50628;51.008;13.658;2023-03-03T09:09:24;32.80;;;18.40;;
64291;SDS011;50628;51.008;13.658;2023-03-03T09:14:27;36.10;;;17.90;;
64291;SDS011;50628;51.008;13.658;2023-03-03T09:19:32;28.40;;;17.00;;
64291;SDS011;50628;51.008;13.658;2023-03-03T09:24:34;36.83;;;17.70;;
64291;SDS011;50628;51.008;13.658;2023-03-03T09:29:37;27.20;;;15.67;;
64291;SDS011;50628;51.008;13.658;2023-03-03T09:34:41;26.97;;;14.23;;
64291;SDS011;50628;51.008;13.658;2023-03-03T09:39:43;22.00;;;13.00;;
64291;SDS011;50628;51.008;13.658;2023-03-03T09:44:55;21.67;;;13.57;;
64291;SDS011;50628;51.008;13.658;2023-03-03T09:50:15;27.30;;;14.27;;
64291;SDS011;50628;51.008;13.658;2023-03-03T09:55:29;16.13;;;9.67;;
64291;SDS011;50628;51.008;13.658;2023-03-03T10:00:42;29.07;;;14.53;;
64291;SDS011;50628;51.008;13.658;2023-03-03T10:05:57;16.10;;;9.90;;
64291;SDS011;50628;51.008;13.658;2023-03-03T10:11:13;17.63;;;10.37;;
64291;SDS011;50628;51.008;13.658;2023-03-03T10:21:52;15.30;;;9.47;;
64291;SDS011;50628;51.008;13.658;2023-03-03T10:27:04;17.43;;;9.30;;
64291;SDS011;50628;51.008;13.658;2023-03-03T10:32:26;12.40;;;7.73;;
64291;SDS011;50628;51.008;13.658;2023-03-03T10:37:40;12.03;;;7.40;;
64291;SDS011;50628;51.008;13.658;2023-03-03T10:43:03;12.10;;;7.50;;
64291;SDS011;50628;51.008;13.658;2023-03-03T10:48:20;12.90;;;7.80;;
64291;SDS011;50628;51.008;13.658;2023-03-03T10:53:36;16.57;;;7.90;;
64291;SDS011;50628;51.008;13.658;2023-03-03T10:58:50;12.97;;;7.20;;
64291;SDS011;50628;51.008;13.658;2023-03-03T11:04:17;15.13;;;8.13;;
64291;SDS011;50628;51.008;13.658;2023-03-03T11:09:36;14.80;;;7.37;;
64291;SDS011;50628;51.008;13.658;2023-03-03T11:14:46;19.17;;;8.47;;
64291;SDS011;50628;51.008;13.658;2023-03-03T11:19:58;10.60;;;6.03;;
64291;SDS011;50628;51.008;13.658;2023-03-03T11:25:18;15.40;;;7.50;;
64291;SDS011;50628;51.008;13.658;2023-03-03T11:30:32;10.97;;;6.80;;
64291;SDS011;50628;51.008;13.658;2023-03-03T11:35:43;19.80;;;8.07;;
64291;SDS011;50628;51.008;13.658;2023-03-03T11:40:52;13.80;;;6.13;;
64291;SDS011;50628;51.008;13.658;2023-03-03T11:45:57;34.40;;;10.80;;
64291;SDS011;50628;51.008;13.658;2023-03-03T11:51:04;32.10;;;8.20;;
64291;SDS011;50628;51.008;13.658;2023-03-03T11:56:13;16.80;;;7.77;;
64291;SDS011;50628;51.008;13.658;2023-03-03T12:01:24;12.17;;;6.63;;
64291;SDS011;50628;51.008;13.658;2023-03-03T12:06:32;14.60;;;7.43;;
64291;SDS011;50628;51.008;13.658;2023-03-03T12:11:48;22.23;;;6.53;;
64291;SDS011;50628;51.008;13.658;2023-03-03T12:16:54;40.10;;;8.07;;
64291;SDS011;50628;51.008;13.658;2023-03-03T12:22:02;19.20;;;11.17;;
64291;SDS011;50628;51.008;13.658;2023-03-03T12:27:18;10.70;;;5.80;;
64291;SDS011;50628;51.008;13.658;2023-03-03T12:32:31;9.63;;;5.17;;
64291;SDS011;50628;51.008;13.658;2023-03-03T12:37:48;16.73;;;6.37;;
64291;SDS011;50628;51.008;13.658;2023-03-03T12:43:00;15.83;;;5.10;;
64291;SDS011;50628;51.008;13.658;2023-03-03T12:48:13;9.20;;;4.50;;
64291;SDS011;50628;51.008;13.658;2023-03-03T12:53:21;6.43;;;4.60;;
64291;SDS011;50628;51.008;13.658;2023-03-03T12:58:37;9.40;;;5.30;;
64291;SDS011;50628;51.008;13.658;2023-03-03T13:03:48;8.70;;;4.27;;
64291;SDS011;50628;51.008;13.658;2023-03-03T13:09:04;10.03;;;4.90;;
64291;SDS011;50628;51.008;13.658;2023-03-03T13:14:22;13.40;;;4.70;;
64291;SDS011;50628;51.008;13.658;2023-03-03T13:19:33;15.17;;;5.13;;
64291;SDS011;50628;51.008;13.658;2023-03-03T13:24:44;24.20;;;6.20;;
64291;SDS011;50628;51.008;13.658;2023-03-03T13:29:55;20.40;;;5.10;;
64291;SDS011;50628;51.008;13.658;2023-03-03T13:35:01;5.13;;;3.63;;
64291;SDS011;50628;51.008;13.658;2023-03-03T13:40:12;9.73;;;4.53;;
64291;SDS011;50628;51.008;13.658;2023-03-03T13:45:22;8.33;;;4.70;;
64291;SDS011;50628;51.008;13.658;2023-03-03T13:50:29;9.93;;;4.73;;
64291;SDS011;50628;51.008;13.658;2023-03-03T13:55:36;8.33;;;4.43;;
64291;SDS011;50628;51.008;13.658;2023-03-03T14:00:49;9.93;;;4.43;;
64291;SDS011;50628;51.008;13.658;2023-03-03T14:05:58;11.47;;;4.40;;
64291;SDS011;50628;51.008;13.658;2023-03-03T14:11:06;7.87;;;4.53;;
64291;SDS011;50628;51.008;13.658;2023-03-03T14:16:13;10.60;;;4.33;;
64291;SDS011;50628;51.008;13.658;2023-03-03T14:21:20;13.53;;;6.17;;
64291;SDS011;50628;51.008;13.658;2023-03-03T14:26:28;13.03;;;6.13;;
64291;SDS011;50628;51.008;13.658;2023-03-03T14:31:37;10.87;;;5.20;;
64291;SDS011;50628;51.008;13.658;2023-03-03T14:36:42;10.83;;;5.50;;
64291;SDS011;50628;51.008;13.658;2023-03-03T14:41:44;9.53;;;5.40;;
64291;SDS011;50628;51.008;13.658;2023-03-03T14:46:51;13.60;;;5.83;;
64291;SDS011;50628;51.008;13.658;2023-03-03T14:52:02;9.57;;;4.90;;
64291;SDS011;50628;51.008;13.658;2023-03-03T14:57:20;12.30;;;6.20;;
64291;SDS011;50628;51.008;13.658;2023-03-03T15:02:31;11.93;;;6.50;;
64291;SDS011;50628;51.008;13.658;2023-03-03T15:07:37;10.67;;;5.73;;
64291;SDS011;50628;51.008;13.658;2023-03-03T15:12:41;9.17;;;5.33;;
64291;SDS011;50628;51.008;13.658;2023-03-03T15:17:52;8.67;;;5.27;;
64291;SDS011;50628;51.008;13.658;2023-03-03T15:22:58;10.50;;;6.40;;
64291;SDS011;50628;51.008;13.658;2023-03-03T15:28:23;10.63;;;6.57;;
64291;SDS011;50628;51.008;13.658;2023-03-03T15:33:37;12.07;;;6.67;;
64291;SDS011;50628;51.008;13.658;2023-03-03T15:38:49;15.57;;;6.47;;
64291;SDS011;50628;51.008;13.658;2023-03-03T15:43:59;13.00;;;7.30;;
64291;SDS011;50628;51.008;13.658;2023-03-03T15:49:14;15.67;;;8.20;;
64291;SDS011;50628;51.008;13.658;2023-03-03T15:54:32;19.67;;;8.83;;
64291;SDS011;50628;51.008;13.658;2023-03-03T15:59:48;16.77;;;9.00;;
64291;SDS011;50628;51.008;13.658;2023-03-03T16:05:15;22.27;;;10.47;;
64291;SDS011;50628;51.008;13.658;2023-03-03T16:10:23;22.43;;;12.53;;
64291;SDS011;50628;51.008;13.658;2023-03-03T16:15:44;28.80;;;13.93;;
64291;SDS011;50628;51.008;13.658;2023-03-03T16:21:00;28.60;;;14.63;;
64291;SDS011;50628;51.008;13.658;2023-03-03T16:26:12;32.00;;;17.40;;
64291;SDS011;50628;51.008;13.658;2023-03-03T16:31:24;36.20;;;17.53;;
64291;SDS011;50628;51.008;13.658;2023-03-03T16:36:34;36.73;;;17.80;;
64291;SDS011;50628;51.008;13.658;2023-03-03T16:41:46;37.23;;;18.07;;
64291;SDS011;50628;51.008;13.658;2023-03-03T16:46:57;42.30;;;20.60;;
64291;SDS011;50628;51.008;13.658;2023-03-03T16:52:13;40.80;;;21.00;;
64291;SDS011;50628;51.008;13.658;2023-03-03T16:57:18;41.90;;;21.73;;
64291;SDS011;50628;51.008;13.658;2023-03-03T17:08:05;54.27;;;26.60;;
64291;SDS011;50628;51.008;13.658;2023-03-03T17:13:23;52.40;;;24.43;;
64291;SDS011;50628;51.008;13.658;2023-03-03T17:18:44;50.80;;;24.87;;
64291;SDS011;50628;51.008;13.658;2023-03-03T17:24:01;38.83;;;18.80;;
64291;SDS011;50628;51.008;13.658;2023-03-03T17:29:17;34.67;;;18.80;;
64291;SDS011;50628;51.008;13.658;2023-03-03T17:34:33;37.80;;;20.20;;
64291;SDS011;50628;51.008;13.658;2023-03-03T17:39:53;41.97;;;22.40;;
64291;SDS011;50628;51.008;13.658;2023-03-03T17:45:06;45.63;;;23.17;;
64291;SDS011;50628;51.008;13.658;2023-03-03T17:50:12;46.83;;;23.97;;
64291;SDS011;50628;51.008;13.658;2023-03-03T17:55:31;49.53;;;24.23;;
64291;SDS011;50628;51.008;13.658;2023-03-03T18:00:43;47.70;;;24.87;;
64291;SDS011;50628;51.008;13.658;2023-03-03T18:06:10;47.40;;;24.83;;
64291;SDS011;50628;51.008;13.658;2023-03-03T18:11:30;51.93;;;26.07;;
64291;SDS011;50628;51.008;13.658;2023-03-03T18:16:51;52.27;;;26.93;;
64291;SDS011;50628;51.008;13.658;2023-03-03T18:22:06;56.10;;;27.10;;
64291;SDS011;50628;51.008;13.658;2023-03-03T18:27:28;49.37;;;25.33;;
64291;SDS011;50628;51.008;13.658;2023-03-03T18:32:39;44.13;;;24.00;;
64291;SDS011;50628;51.008;13.658;2023-03-03T18:37:42;50.47;;;23.47;;
64291;SDS011;50628;51.008;13.658;2023-03-03T18:42:46;41.70;;;21.83;;
64291;SDS011;50628;51.008;13.658;2023-03-03T18:48:02;49.93;;;23.93;;
64291;SDS011;50628;51.008;13.658;2023-03-03T18:53:19;44.40;;;21.23;;
64291;SDS011;50628;51.008;13.658;2023-03-03T18:58:35;44.73;;;21.00;;
64291;SDS011;50628;51.008;13.658;2023-03-03T19:03:54;43.03;;;21.03;;
64291;SDS011;50628;51.008;13.658;2023-03-03T19:09:02;43.43;;;21.53;;
64291;SDS011;50628;51.008;13.658;2023-03-03T19:14:16;41.53;;;21.33;;
64291;SDS011;50628;51.008;13.658;2023-03-03T19:19:20;44.10;;;20.97;;
64291;SDS011;50628;51.008;13.658;2023-03-03T19:24:26;41.77;;;20.00;;
64291;SDS011;50628;51.008;13.658;2023-03-03T19:29:38;39.87;;;19.70;;
64291;SDS011;50628;51.008;13.658;2023-03-03T19:35:24;48.00;;;20.73;;
64291;SDS011;50628;51.008;13.658;2023-03-03T19:40:33;37.40;;;17.63;;
64291;SDS011;50628;51.008;13.658;2023-03-03T19:45:48;38.87;;;19.67;;
64291;SDS011;50628;51.008;13.658;2023-03-03T19:50:59;40.63;;;20.03;;
64291;SDS011;50628;51.008;13.658;2023-03-03T19:56:10;41.67;;;20.20;;
64291;SDS011;50628;51.008;13.658;2023-03-03T20:01:22;42.50;;;20.20;;
64291;SDS011;50628;51.008;13.658;2023-03-03T20:06:31;37.97;;;19.33;;
64291;SDS011;50628;51.008;13.658;2023-03-03T20:11:45;43.20;;;20.43;;
64291;SDS011;50628;51.008;13.658;2023-03-03T20:17:11;47.17;;;21.13;;
64291;SDS011;50628;51.008;13.658;2023-03-03T20:22:31;41.53;;;19.20;;
64291;SDS011;50628;51.008;13.658;2023-03-03T20:27:43;42.47;;;19.30;;
64291;SDS011;50628;51.008;13.658;2023-03-03T20:32:55;44.27;;;20.80;;
64291;SDS011;50628;51.008;13.658;2023-03-03T20:38:09;54.57;;;23.60;;
64291;SDS011;50628;51.008;13.658;2023-03-03T20:43:21;53.07;;;22.93;;
64291;SDS011;50628;51.008;13.658;2023-03-03T20:48:39;47.13;;;20.50;;
64291;SDS011;50628;51.008;13.658;2023-03-03T20:53:53;46.80;;;21.37;;
64291;SDS011;50628;51.008;13.658;2023-03-03T20:59:08;46.13;;;21.87;;
64291;SDS011;50628;51.008;13.658;2023-03-03T21:04:21;48.93;;;22.77;;
64291;SDS011;50628;51.008;13.658;2023-03-03T21:09:25;51.90;;;22.37;;
64291;SDS011;50628;51.008;13.658;2023-03-03T21:14:30;55.53;;;24.30;;
64291;SDS011;50628;51.008;13.658;2023-03-03T21:19:37;51.90;;;24.77;;
64291;SDS011;50628;51.008;13.658;2023-03-03T21:24:46;63.23;;;25.27;;
64291;SDS011;50628;51.008;13.658;2023-03-03T21:30:00;60.57;;;26.10;;
64291;SDS011;50628;51.008;13.658;2023-03-03T21:35:05;62.70;;;27.33;;
64291;SDS011;50628;51.008;13.658;2023-03-03T21:40:11;64.50;;;27.63;;
64291;SDS011;50628;51.008;13.658;2023-03-03T21:45:15;69.67;;;27.67;;
64291;SDS011;50628;51.008;13.658;2023-03-03T21:50:20;62.90;;;27.07;;
64291;SDS011;50628;51.008;13.658;2023-03-03T21:55:23;64.70;;;27.10;;
64291;SDS011;50628;51.008;13.658;2023-03-03T22:00:25;68.10;;;29.17;;
64291;SDS011;50628;51.008;13.658;2023-03-03T22:05:28;65.80;;;28.33;;
64291;SDS011;50628;51.008;13.658;2023-03-03T22:10:30;63.17;;;27.50;;
64291;SDS011;50628;51.008;13.658;2023-03-03T22:15:32;73.63;;;30.57;;
64291;SDS011;50628;51.008;13.658;2023-03-03T22:20:36;68.17;;;30.10;;
64291;SDS011;50628;51.008;13.658;2023-03-03T22:25:37;70.60;;;29.90;;
64291;SDS011;50628;51.008;13.658;2023-03-03T22:30:39;65.57;;;28.03;;
64291;SDS011;50628;51.008;13.658;2023-03-03T22:35:43;64.47;;;27.80;;
64291;SDS011;50628;51.008;13.658;2023-03-03T22:40:45;59.47;;;27.27;;
64291;SDS011;50628;51.008;13.658;2023-03-03T22:45:46;63.57;;;27.80;;
64291;SDS011;50628;51.008;13.658;2023-03-03T22:50:51;61.83;;;29.07;;
64291;SDS011;50628;51.008;13.658;2023-03-03T22:55:53;58.57;;;27.33;;
64291;SDS011;50628;51.008;13.658;2023-03-03T23:00:55;62.10;;;26.33;;
64291;SDS011;50628;51.008;13.658;2023-03-03T23:05:59;68.27;;;30.27;;
64291;SDS011;50628;51.008;13.658;2023-03-03T23:11:00;55.50;;;25.23;;
64291;SDS011;50628;51.008;13.658;2023-03-03T23:16:03;57.23;;;25.90;;
64291;SDS011;50628;51.008;13.658;2023-03-03T23:21:07;61.40;;;26.20;;
64291;SDS011;50628;51.008;13.658;2023-03-03T23:26:09;46.60;;;22.53;;
64291;SDS011;50628;51.008;13.658;2023-03-03T23:31:11;51.80;;;23.10;;
64291;SDS011;50628;51.008;13.658;2023-03-03T23:36:14;55.97;;;24.60;;
64291;SDS011;50628;51.008;13.658;2023-03-03T23:41:16;48.10;;;23.23;;
64291;SDS011;50628;51.008;13.658;2023-03-03T23:46:18;42.93;;;21.23;;
64291;SDS011;50628;51.008;13.658;2023-03-03T23:51:21;44.40;;;23.33;;
64291;SDS011;50628;51.008;13.658;2023-03-03T23:56:23;39.47;;;20.40;;
